<?xml version="1.0" encoding="UTF-8" standalone="no" ?>
<gpx xmlns="http://www.topografix.com/GPX/1/1" xmlns:xsi="http://www.w3.org/2001/XMLSchema-instance" xsi:schemaLocation="http://www.topografix.com/GPX/1/1 http://www.topografix.com/GPX/1/1/gpx.xsd" version="1.1" creator="VisuGPX - https://www.visugpx.com">
  <metadata>
    <name>saint Jean D'Aubrigoux 20km</name>
    <desc><![CDATA[fait le 18/05/2025 au départ d'un lieu privé]]></desc>
  </metadata>
  <wpt lat="45.39887" lon="3.81075">
    <ele>1057.1</ele>
    <name><![CDATA[pic pic]]></name>
    <type><![CDATA[picnic]]></type>
  </wpt>
  <trk>
    <name><![CDATA[2025-05-18 21:02:04]]></name>
    <extensions>
      <line xmlns="http://www.topografix.com/GPX/gpx_style/0/2">
        <color>0000FF</color>
        <width>4</width>
      </line>
    </extensions>
    <trkseg>
      <trkpt lat="45.36047" lon="3.80278">
        <ele>1020.1</ele>
        <time>2025-05-18T09:00:21Z</time>
      </trkpt>
      <trkpt lat="45.36048" lon="3.80271">
        <ele>1021.54</ele>
        <time>2025-05-18T09:00:47Z</time>
      </trkpt>
      <trkpt lat="45.36049" lon="3.80272">
        <ele>1021.54</ele>
        <time>2025-05-18T09:00:49Z</time>
      </trkpt>
      <trkpt lat="45.36066" lon="3.80268">
        <ele>1021.06</ele>
        <time>2025-05-18T09:01:07Z</time>
      </trkpt>
      <trkpt lat="45.3607" lon="3.80262">
        <ele>1020.1</ele>
        <time>2025-05-18T09:01:26Z</time>
      </trkpt>
      <trkpt lat="45.36079" lon="3.80273">
        <ele>1017.69</ele>
        <time>2025-05-18T09:01:41Z</time>
      </trkpt>
      <trkpt lat="45.36105" lon="3.80272">
        <ele>1014.33</ele>
        <time>2025-05-18T09:02:02Z</time>
      </trkpt>
      <trkpt lat="45.36137" lon="3.80274">
        <ele>1014.81</ele>
        <time>2025-05-18T09:02:25Z</time>
      </trkpt>
      <trkpt lat="45.36169" lon="3.80276">
        <ele>1014.33</ele>
        <time>2025-05-18T09:02:50Z</time>
      </trkpt>
      <trkpt lat="45.36195" lon="3.80272">
        <ele>1014.33</ele>
        <time>2025-05-18T09:03:08Z</time>
      </trkpt>
      <trkpt lat="45.36224" lon="3.80267">
        <ele>1016.73</ele>
        <time>2025-05-18T09:03:30Z</time>
      </trkpt>
      <trkpt lat="45.36229" lon="3.80261">
        <ele>1017.21</ele>
        <time>2025-05-18T09:03:36Z</time>
      </trkpt>
      <trkpt lat="45.36245" lon="3.80227">
        <ele>1017.21</ele>
        <time>2025-05-18T09:03:56Z</time>
      </trkpt>
      <trkpt lat="45.36251" lon="3.80222">
        <ele>1017.69</ele>
        <time>2025-05-18T09:04:12Z</time>
      </trkpt>
      <trkpt lat="45.3626" lon="3.80206">
        <ele>1019.13</ele>
        <time>2025-05-18T09:04:33Z</time>
      </trkpt>
      <trkpt lat="45.36278" lon="3.80179">
        <ele>1019.62</ele>
        <time>2025-05-18T09:04:50Z</time>
      </trkpt>
      <trkpt lat="45.36293" lon="3.80156">
        <ele>1021.06</ele>
        <time>2025-05-18T09:05:07Z</time>
      </trkpt>
      <trkpt lat="45.36308" lon="3.80131">
        <ele>1022.02</ele>
        <time>2025-05-18T09:05:24Z</time>
      </trkpt>
      <trkpt lat="45.3632" lon="3.80106">
        <ele>1022.5</ele>
        <time>2025-05-18T09:05:41Z</time>
      </trkpt>
      <trkpt lat="45.36335" lon="3.80082">
        <ele>1022.02</ele>
        <time>2025-05-18T09:05:57Z</time>
      </trkpt>
      <trkpt lat="45.36341" lon="3.80071">
        <ele>1022.98</ele>
        <time>2025-05-18T09:06:04Z</time>
      </trkpt>
      <trkpt lat="45.36358" lon="3.80043">
        <ele>1022.02</ele>
        <time>2025-05-18T09:06:23Z</time>
      </trkpt>
      <trkpt lat="45.36378" lon="3.80012">
        <ele>1022.5</ele>
        <time>2025-05-18T09:06:43Z</time>
      </trkpt>
      <trkpt lat="45.36401" lon="3.79985">
        <ele>1023.46</ele>
        <time>2025-05-18T09:07:05Z</time>
      </trkpt>
      <trkpt lat="45.36425" lon="3.79964">
        <ele>1022.98</ele>
        <time>2025-05-18T09:07:24Z</time>
      </trkpt>
      <trkpt lat="45.36447" lon="3.79935">
        <ele>1017.69</ele>
        <time>2025-05-18T09:07:44Z</time>
      </trkpt>
      <trkpt lat="45.36467" lon="3.79907">
        <ele>1011.93</ele>
        <time>2025-05-18T09:08:02Z</time>
      </trkpt>
      <trkpt lat="45.36487" lon="3.79875">
        <ele>1010.96</ele>
        <time>2025-05-18T09:08:23Z</time>
      </trkpt>
      <trkpt lat="45.36504" lon="3.79851">
        <ele>1010.96</ele>
        <time>2025-05-18T09:08:41Z</time>
      </trkpt>
      <trkpt lat="45.36511" lon="3.79819">
        <ele>1008.56</ele>
        <time>2025-05-18T09:08:57Z</time>
      </trkpt>
      <trkpt lat="45.36519" lon="3.79781">
        <ele>1006.16</ele>
        <time>2025-05-18T09:09:16Z</time>
      </trkpt>
      <trkpt lat="45.36534" lon="3.79747">
        <ele>1005.68</ele>
        <time>2025-05-18T09:09:36Z</time>
      </trkpt>
      <trkpt lat="45.36548" lon="3.79718">
        <ele>1004.72</ele>
        <time>2025-05-18T09:09:52Z</time>
      </trkpt>
      <trkpt lat="45.36562" lon="3.79692">
        <ele>1004.23</ele>
        <time>2025-05-18T09:10:09Z</time>
      </trkpt>
      <trkpt lat="45.36584" lon="3.79662">
        <ele>1004.72</ele>
        <time>2025-05-18T09:10:29Z</time>
      </trkpt>
      <trkpt lat="45.36601" lon="3.79632">
        <ele>1006.64</ele>
        <time>2025-05-18T09:10:49Z</time>
      </trkpt>
      <trkpt lat="45.36618" lon="3.79603">
        <ele>1006.16</ele>
        <time>2025-05-18T09:11:07Z</time>
      </trkpt>
      <trkpt lat="45.36632" lon="3.79581">
        <ele>1004.23</ele>
        <time>2025-05-18T09:11:25Z</time>
      </trkpt>
      <trkpt lat="45.36639" lon="3.79555">
        <ele>1002.79</ele>
        <time>2025-05-18T09:11:42Z</time>
      </trkpt>
      <trkpt lat="45.3664" lon="3.79554">
        <ele>1002.79</ele>
        <time>2025-05-18T09:11:43Z</time>
      </trkpt>
      <trkpt lat="45.36655" lon="3.79523">
        <ele>1000.87</ele>
        <time>2025-05-18T09:12:03Z</time>
      </trkpt>
      <trkpt lat="45.36674" lon="3.79519">
        <ele>996.06</ele>
        <time>2025-05-18T09:12:23Z</time>
      </trkpt>
      <trkpt lat="45.36694" lon="3.79504">
        <ele>993.66</ele>
        <time>2025-05-18T09:12:43Z</time>
      </trkpt>
      <trkpt lat="45.36707" lon="3.79481">
        <ele>992.22</ele>
        <time>2025-05-18T09:13:02Z</time>
      </trkpt>
      <trkpt lat="45.36719" lon="3.7946">
        <ele>989.81</ele>
        <time>2025-05-18T09:13:19Z</time>
      </trkpt>
      <trkpt lat="45.36718" lon="3.7943">
        <ele>988.85</ele>
        <time>2025-05-18T09:13:38Z</time>
      </trkpt>
      <trkpt lat="45.36706" lon="3.79402">
        <ele>988.85</ele>
        <time>2025-05-18T09:13:59Z</time>
      </trkpt>
      <trkpt lat="45.36706" lon="3.79374">
        <ele>990.78</ele>
        <time>2025-05-18T09:14:18Z</time>
      </trkpt>
      <trkpt lat="45.36724" lon="3.79357">
        <ele>992.7</ele>
        <time>2025-05-18T09:14:39Z</time>
      </trkpt>
      <trkpt lat="45.36743" lon="3.79351">
        <ele>994.14</ele>
        <time>2025-05-18T09:14:59Z</time>
      </trkpt>
      <trkpt lat="45.36766" lon="3.79341">
        <ele>1004.72</ele>
        <time>2025-05-18T09:15:17Z</time>
      </trkpt>
      <trkpt lat="45.36786" lon="3.79331">
        <ele>1009.04</ele>
        <time>2025-05-18T09:15:37Z</time>
      </trkpt>
      <trkpt lat="45.36799" lon="3.79331">
        <ele>1011.93</ele>
        <time>2025-05-18T09:15:45Z</time>
      </trkpt>
      <trkpt lat="45.36819" lon="3.7933">
        <ele>1013.85</ele>
        <time>2025-05-18T09:16:03Z</time>
      </trkpt>
      <trkpt lat="45.36841" lon="3.79334">
        <ele>1018.17</ele>
        <time>2025-05-18T09:16:23Z</time>
      </trkpt>
      <trkpt lat="45.36864" lon="3.79319">
        <ele>1020.58</ele>
        <time>2025-05-18T09:16:46Z</time>
      </trkpt>
      <trkpt lat="45.36888" lon="3.79326">
        <ele>1021.54</ele>
        <time>2025-05-18T09:17:07Z</time>
      </trkpt>
      <trkpt lat="45.36914" lon="3.7934">
        <ele>1023.94</ele>
        <time>2025-05-18T09:17:27Z</time>
      </trkpt>
      <trkpt lat="45.36919" lon="3.79344">
        <ele>1024.9</ele>
        <time>2025-05-18T09:17:31Z</time>
      </trkpt>
      <trkpt lat="45.36924" lon="3.79348">
        <ele>1025.38</ele>
        <time>2025-05-18T09:17:35Z</time>
      </trkpt>
      <trkpt lat="45.36949" lon="3.79364">
        <ele>1026.83</ele>
        <time>2025-05-18T09:17:56Z</time>
      </trkpt>
      <trkpt lat="45.36971" lon="3.79375">
        <ele>1028.75</ele>
        <time>2025-05-18T09:18:16Z</time>
      </trkpt>
      <trkpt lat="45.36988" lon="3.79388">
        <ele>1030.19</ele>
        <time>2025-05-18T09:18:33Z</time>
      </trkpt>
      <trkpt lat="45.36988" lon="3.79389">
        <ele>1030.19</ele>
        <time>2025-05-18T09:18:34Z</time>
      </trkpt>
      <trkpt lat="45.36991" lon="3.79423">
        <ele>1029.23</ele>
        <time>2025-05-18T09:18:56Z</time>
      </trkpt>
      <trkpt lat="45.36991" lon="3.79465">
        <ele>1032.59</ele>
        <time>2025-05-18T09:19:18Z</time>
      </trkpt>
      <trkpt lat="45.36988" lon="3.79494">
        <ele>1033.07</ele>
        <time>2025-05-18T09:19:36Z</time>
      </trkpt>
      <trkpt lat="45.36989" lon="3.7953">
        <ele>1028.27</ele>
        <time>2025-05-18T09:19:57Z</time>
      </trkpt>
      <trkpt lat="45.36987" lon="3.79556">
        <ele>1030.67</ele>
        <time>2025-05-18T09:20:16Z</time>
      </trkpt>
      <trkpt lat="45.36994" lon="3.79598">
        <ele>1034.04</ele>
        <time>2025-05-18T09:20:38Z</time>
      </trkpt>
      <trkpt lat="45.3699" lon="3.79614">
        <ele>1034.52</ele>
        <time>2025-05-18T09:20:48Z</time>
      </trkpt>
      <trkpt lat="45.3699" lon="3.79622">
        <ele>1034.04</ele>
        <time>2025-05-18T09:20:52Z</time>
      </trkpt>
      <trkpt lat="45.36992" lon="3.79648">
        <ele>1034.04</ele>
        <time>2025-05-18T09:21:10Z</time>
      </trkpt>
      <trkpt lat="45.36997" lon="3.79649">
        <ele>1034.04</ele>
        <time>2025-05-18T09:21:14Z</time>
      </trkpt>
      <trkpt lat="45.3701" lon="3.79658">
        <ele>1035.48</ele>
        <time>2025-05-18T09:21:28Z</time>
      </trkpt>
      <trkpt lat="45.3703" lon="3.79674">
        <ele>1035.48</ele>
        <time>2025-05-18T09:21:46Z</time>
      </trkpt>
      <trkpt lat="45.37046" lon="3.79672">
        <ele>1033.55</ele>
        <time>2025-05-18T09:22:02Z</time>
      </trkpt>
      <trkpt lat="45.37067" lon="3.79664">
        <ele>1030.67</ele>
        <time>2025-05-18T09:22:20Z</time>
      </trkpt>
      <trkpt lat="45.37078" lon="3.7966">
        <ele>1030.19</ele>
        <time>2025-05-18T09:22:27Z</time>
      </trkpt>
      <trkpt lat="45.37105" lon="3.79648">
        <ele>1032.59</ele>
        <time>2025-05-18T09:22:48Z</time>
      </trkpt>
      <trkpt lat="45.37128" lon="3.79636">
        <ele>1035</ele>
        <time>2025-05-18T09:23:06Z</time>
      </trkpt>
      <trkpt lat="45.37147" lon="3.79618">
        <ele>1039.32</ele>
        <time>2025-05-18T09:23:24Z</time>
      </trkpt>
      <trkpt lat="45.37166" lon="3.79604">
        <ele>1042.69</ele>
        <time>2025-05-18T09:23:42Z</time>
      </trkpt>
      <trkpt lat="45.3719" lon="3.79584">
        <ele>1045.09</ele>
        <time>2025-05-18T09:24:03Z</time>
      </trkpt>
      <trkpt lat="45.3721" lon="3.79572">
        <ele>1045.57</ele>
        <time>2025-05-18T09:24:21Z</time>
      </trkpt>
      <trkpt lat="45.37239" lon="3.7956">
        <ele>1047.49</ele>
        <time>2025-05-18T09:24:46Z</time>
      </trkpt>
      <trkpt lat="45.37263" lon="3.79556">
        <ele>1054.22</ele>
        <time>2025-05-18T09:25:04Z</time>
      </trkpt>
      <trkpt lat="45.37278" lon="3.79558">
        <ele>1057.11</ele>
        <time>2025-05-18T09:25:15Z</time>
      </trkpt>
      <trkpt lat="45.37299" lon="3.79551">
        <ele>1058.55</ele>
        <time>2025-05-18T09:25:32Z</time>
      </trkpt>
      <trkpt lat="45.37328" lon="3.79558">
        <ele>1063.36</ele>
        <time>2025-05-18T09:25:48Z</time>
      </trkpt>
      <trkpt lat="45.37351" lon="3.79565">
        <ele>1056.15</ele>
        <time>2025-05-18T09:26:08Z</time>
      </trkpt>
      <trkpt lat="45.3738" lon="3.79575">
        <ele>1049.9</ele>
        <time>2025-05-18T09:26:26Z</time>
      </trkpt>
      <trkpt lat="45.37405" lon="3.79578">
        <ele>1048.94</ele>
        <time>2025-05-18T09:26:45Z</time>
      </trkpt>
      <trkpt lat="45.37434" lon="3.79575">
        <ele>1043.17</ele>
        <time>2025-05-18T09:27:05Z</time>
      </trkpt>
      <trkpt lat="45.3746" lon="3.79562">
        <ele>1037.88</ele>
        <time>2025-05-18T09:27:24Z</time>
      </trkpt>
      <trkpt lat="45.37485" lon="3.79553">
        <ele>1034.52</ele>
        <time>2025-05-18T09:27:41Z</time>
      </trkpt>
      <trkpt lat="45.37519" lon="3.79552">
        <ele>1035.48</ele>
        <time>2025-05-18T09:28:02Z</time>
      </trkpt>
      <trkpt lat="45.37551" lon="3.79562">
        <ele>1042.21</ele>
        <time>2025-05-18T09:28:19Z</time>
      </trkpt>
      <trkpt lat="45.37582" lon="3.79575">
        <ele>1043.65</ele>
        <time>2025-05-18T09:28:41Z</time>
      </trkpt>
      <trkpt lat="45.37604" lon="3.79585">
        <ele>1043.65</ele>
        <time>2025-05-18T09:28:59Z</time>
      </trkpt>
      <trkpt lat="45.37625" lon="3.79576">
        <ele>1045.57</ele>
        <time>2025-05-18T09:29:17Z</time>
      </trkpt>
      <trkpt lat="45.37651" lon="3.79563">
        <ele>1047.01</ele>
        <time>2025-05-18T09:29:36Z</time>
      </trkpt>
      <trkpt lat="45.37676" lon="3.79543">
        <ele>1047.49</ele>
        <time>2025-05-18T09:29:56Z</time>
      </trkpt>
      <trkpt lat="45.37695" lon="3.79528">
        <ele>1047.49</ele>
        <time>2025-05-18T09:30:12Z</time>
      </trkpt>
      <trkpt lat="45.37717" lon="3.79514">
        <ele>1047.49</ele>
        <time>2025-05-18T09:30:30Z</time>
      </trkpt>
      <trkpt lat="45.37734" lon="3.79506">
        <ele>1048.45</ele>
        <time>2025-05-18T09:30:42Z</time>
      </trkpt>
      <trkpt lat="45.3776" lon="3.79493">
        <ele>1047.49</ele>
        <time>2025-05-18T09:31:03Z</time>
      </trkpt>
      <trkpt lat="45.37785" lon="3.79479">
        <ele>1048.94</ele>
        <time>2025-05-18T09:31:22Z</time>
      </trkpt>
      <trkpt lat="45.3781" lon="3.79461">
        <ele>1050.38</ele>
        <time>2025-05-18T09:31:41Z</time>
      </trkpt>
      <trkpt lat="45.37837" lon="3.79443">
        <ele>1051.34</ele>
        <time>2025-05-18T09:32:03Z</time>
      </trkpt>
      <trkpt lat="45.37865" lon="3.79427">
        <ele>1049.42</ele>
        <time>2025-05-18T09:32:21Z</time>
      </trkpt>
      <trkpt lat="45.3789" lon="3.79415">
        <ele>1048.94</ele>
        <time>2025-05-18T09:32:39Z</time>
      </trkpt>
      <trkpt lat="45.37916" lon="3.79393">
        <ele>1047.49</ele>
        <time>2025-05-18T09:33:01Z</time>
      </trkpt>
      <trkpt lat="45.37922" lon="3.79386">
        <ele>1047.97</ele>
        <time>2025-05-18T09:33:06Z</time>
      </trkpt>
      <trkpt lat="45.37952" lon="3.79374">
        <ele>1051.34</ele>
        <time>2025-05-18T09:33:29Z</time>
      </trkpt>
      <trkpt lat="45.37978" lon="3.79363">
        <ele>1052.78</ele>
        <time>2025-05-18T09:33:47Z</time>
      </trkpt>
      <trkpt lat="45.38003" lon="3.79363">
        <ele>1050.86</ele>
        <time>2025-05-18T09:34:03Z</time>
      </trkpt>
      <trkpt lat="45.38031" lon="3.79367">
        <ele>1049.42</ele>
        <time>2025-05-18T09:34:23Z</time>
      </trkpt>
      <trkpt lat="45.38055" lon="3.79369">
        <ele>1047.49</ele>
        <time>2025-05-18T09:34:43Z</time>
      </trkpt>
      <trkpt lat="45.38083" lon="3.79377">
        <ele>1041.73</ele>
        <time>2025-05-18T09:34:59Z</time>
      </trkpt>
      <trkpt lat="45.38108" lon="3.79396">
        <ele>1031.63</ele>
        <time>2025-05-18T09:35:19Z</time>
      </trkpt>
      <trkpt lat="45.38125" lon="3.79406">
        <ele>1034.04</ele>
        <time>2025-05-18T09:35:31Z</time>
      </trkpt>
      <trkpt lat="45.38154" lon="3.79421">
        <ele>1033.55</ele>
        <time>2025-05-18T09:35:50Z</time>
      </trkpt>
      <trkpt lat="45.38175" lon="3.7943">
        <ele>1030.67</ele>
        <time>2025-05-18T09:36:07Z</time>
      </trkpt>
      <trkpt lat="45.38207" lon="3.79438">
        <ele>1045.57</ele>
        <time>2025-05-18T09:36:29Z</time>
      </trkpt>
      <trkpt lat="45.38229" lon="3.79438">
        <ele>1046.53</ele>
        <time>2025-05-18T09:36:50Z</time>
      </trkpt>
      <trkpt lat="45.38254" lon="3.79447">
        <ele>1047.01</ele>
        <time>2025-05-18T09:37:05Z</time>
      </trkpt>
      <trkpt lat="45.38288" lon="3.79467">
        <ele>1049.42</ele>
        <time>2025-05-18T09:37:25Z</time>
      </trkpt>
      <trkpt lat="45.3832" lon="3.7949">
        <ele>1050.38</ele>
        <time>2025-05-18T09:37:46Z</time>
      </trkpt>
      <trkpt lat="45.38347" lon="3.79509">
        <ele>1052.78</ele>
        <time>2025-05-18T09:38:03Z</time>
      </trkpt>
      <trkpt lat="45.38355" lon="3.79511">
        <ele>1053.26</ele>
        <time>2025-05-18T09:38:08Z</time>
      </trkpt>
      <trkpt lat="45.38378" lon="3.79532">
        <ele>1055.67</ele>
        <time>2025-05-18T09:38:27Z</time>
      </trkpt>
      <trkpt lat="45.38405" lon="3.7955">
        <ele>1055.67</ele>
        <time>2025-05-18T09:38:49Z</time>
      </trkpt>
      <trkpt lat="45.38408" lon="3.79549">
        <ele>1056.63</ele>
        <time>2025-05-18T09:38:53Z</time>
      </trkpt>
      <trkpt lat="45.38427" lon="3.79546">
        <ele>1054.7</ele>
        <time>2025-05-18T09:39:11Z</time>
      </trkpt>
      <trkpt lat="45.38458" lon="3.79565">
        <ele>1053.26</ele>
        <time>2025-05-18T09:39:30Z</time>
      </trkpt>
      <trkpt lat="45.38478" lon="3.79572">
        <ele>1051.82</ele>
        <time>2025-05-18T09:39:46Z</time>
      </trkpt>
      <trkpt lat="45.38498" lon="3.79575">
        <ele>1046.05</ele>
        <time>2025-05-18T09:40:05Z</time>
      </trkpt>
      <trkpt lat="45.38526" lon="3.79571">
        <ele>1044.13</ele>
        <time>2025-05-18T09:40:24Z</time>
      </trkpt>
      <trkpt lat="45.38556" lon="3.7956">
        <ele>1046.53</ele>
        <time>2025-05-18T09:40:44Z</time>
      </trkpt>
      <trkpt lat="45.38581" lon="3.79553">
        <ele>1046.05</ele>
        <time>2025-05-18T09:41:03Z</time>
      </trkpt>
      <trkpt lat="45.38607" lon="3.79556">
        <ele>1044.61</ele>
        <time>2025-05-18T09:41:23Z</time>
      </trkpt>
      <trkpt lat="45.38637" lon="3.79585">
        <ele>1044.61</ele>
        <time>2025-05-18T09:41:40Z</time>
      </trkpt>
      <trkpt lat="45.38656" lon="3.79606">
        <ele>1041.25</ele>
        <time>2025-05-18T09:41:59Z</time>
      </trkpt>
      <trkpt lat="45.38673" lon="3.79619">
        <ele>1047.01</ele>
        <time>2025-05-18T09:42:12Z</time>
      </trkpt>
      <trkpt lat="45.38692" lon="3.79625">
        <ele>1049.9</ele>
        <time>2025-05-18T09:42:27Z</time>
      </trkpt>
      <trkpt lat="45.38717" lon="3.79621">
        <ele>1050.38</ele>
        <time>2025-05-18T09:42:46Z</time>
      </trkpt>
      <trkpt lat="45.38745" lon="3.79612">
        <ele>1050.86</ele>
        <time>2025-05-18T09:43:03Z</time>
      </trkpt>
      <trkpt lat="45.3877" lon="3.79614">
        <ele>1051.82</ele>
        <time>2025-05-18T09:43:18Z</time>
      </trkpt>
      <trkpt lat="45.38798" lon="3.79617">
        <ele>1051.82</ele>
        <time>2025-05-18T09:43:37Z</time>
      </trkpt>
      <trkpt lat="45.38823" lon="3.79616">
        <ele>1051.34</ele>
        <time>2025-05-18T09:43:57Z</time>
      </trkpt>
      <trkpt lat="45.38854" lon="3.7963">
        <ele>1050.38</ele>
        <time>2025-05-18T09:44:17Z</time>
      </trkpt>
      <trkpt lat="45.3889" lon="3.79635">
        <ele>1047.97</ele>
        <time>2025-05-18T09:44:41Z</time>
      </trkpt>
      <trkpt lat="45.38919" lon="3.79636">
        <ele>1051.34</ele>
        <time>2025-05-18T09:45:01Z</time>
      </trkpt>
      <trkpt lat="45.38948" lon="3.79649">
        <ele>1050.38</ele>
        <time>2025-05-18T09:45:22Z</time>
      </trkpt>
      <trkpt lat="45.38976" lon="3.7966">
        <ele>1046.53</ele>
        <time>2025-05-18T09:45:44Z</time>
      </trkpt>
      <trkpt lat="45.39007" lon="3.79691">
        <ele>1043.65</ele>
        <time>2025-05-18T09:46:05Z</time>
      </trkpt>
      <trkpt lat="45.39031" lon="3.79715">
        <ele>1043.17</ele>
        <time>2025-05-18T09:46:26Z</time>
      </trkpt>
      <trkpt lat="45.39055" lon="3.79728">
        <ele>1045.09</ele>
        <time>2025-05-18T09:46:48Z</time>
      </trkpt>
      <trkpt lat="45.39089" lon="3.79747">
        <ele>1044.13</ele>
        <time>2025-05-18T09:47:16Z</time>
      </trkpt>
      <trkpt lat="45.39129" lon="3.79777">
        <ele>1051.82</ele>
        <time>2025-05-18T09:47:40Z</time>
      </trkpt>
      <trkpt lat="45.39158" lon="3.79809">
        <ele>1057.59</ele>
        <time>2025-05-18T09:48:02Z</time>
      </trkpt>
      <trkpt lat="45.39179" lon="3.79837">
        <ele>1063.36</ele>
        <time>2025-05-18T09:48:24Z</time>
      </trkpt>
      <trkpt lat="45.39196" lon="3.7986">
        <ele>1065.28</ele>
        <time>2025-05-18T09:48:38Z</time>
      </trkpt>
      <trkpt lat="45.39216" lon="3.7989">
        <ele>1066.72</ele>
        <time>2025-05-18T09:48:57Z</time>
      </trkpt>
      <trkpt lat="45.39227" lon="3.79913">
        <ele>1062.39</ele>
        <time>2025-05-18T09:49:16Z</time>
      </trkpt>
      <trkpt lat="45.39241" lon="3.79941">
        <ele>1056.63</ele>
        <time>2025-05-18T09:49:31Z</time>
      </trkpt>
      <trkpt lat="45.39265" lon="3.79971">
        <ele>1051.82</ele>
        <time>2025-05-18T09:49:53Z</time>
      </trkpt>
      <trkpt lat="45.39294" lon="3.79992">
        <ele>1049.42</ele>
        <time>2025-05-18T09:50:15Z</time>
      </trkpt>
      <trkpt lat="45.39327" lon="3.80006">
        <ele>1050.86</ele>
        <time>2025-05-18T09:50:37Z</time>
      </trkpt>
      <trkpt lat="45.39354" lon="3.80018">
        <ele>1050.38</ele>
        <time>2025-05-18T09:50:56Z</time>
      </trkpt>
      <trkpt lat="45.39376" lon="3.80036">
        <ele>1050.86</ele>
        <time>2025-05-18T09:51:17Z</time>
      </trkpt>
      <trkpt lat="45.39399" lon="3.80043">
        <ele>1056.63</ele>
        <time>2025-05-18T09:51:37Z</time>
      </trkpt>
      <trkpt lat="45.39428" lon="3.80037">
        <ele>1061.91</ele>
        <time>2025-05-18T09:51:56Z</time>
      </trkpt>
      <trkpt lat="45.39467" lon="3.80035">
        <ele>1067.68</ele>
        <time>2025-05-18T09:52:21Z</time>
      </trkpt>
      <trkpt lat="45.39473" lon="3.80031">
        <ele>1068.64</ele>
        <time>2025-05-18T09:52:26Z</time>
      </trkpt>
      <trkpt lat="45.39501" lon="3.80015">
        <ele>1067.2</ele>
        <time>2025-05-18T09:52:46Z</time>
      </trkpt>
      <trkpt lat="45.39506" lon="3.8001">
        <ele>1066.24</ele>
        <time>2025-05-18T09:52:51Z</time>
      </trkpt>
      <trkpt lat="45.3953" lon="3.79987">
        <ele>1068.16</ele>
        <time>2025-05-18T09:53:12Z</time>
      </trkpt>
      <trkpt lat="45.39559" lon="3.79969">
        <ele>1070.08</ele>
        <time>2025-05-18T09:53:34Z</time>
      </trkpt>
      <trkpt lat="45.39592" lon="3.79967">
        <ele>1074.41</ele>
        <time>2025-05-18T09:53:55Z</time>
      </trkpt>
      <trkpt lat="45.39625" lon="3.79971">
        <ele>1075.85</ele>
        <time>2025-05-18T09:54:18Z</time>
      </trkpt>
      <trkpt lat="45.39656" lon="3.79976">
        <ele>1073.45</ele>
        <time>2025-05-18T09:54:39Z</time>
      </trkpt>
      <trkpt lat="45.39675" lon="3.79945">
        <ele>1071.05</ele>
        <time>2025-05-18T09:54:59Z</time>
      </trkpt>
      <trkpt lat="45.39687" lon="3.79941">
        <ele>1069.12</ele>
        <time>2025-05-18T09:55:07Z</time>
      </trkpt>
      <trkpt lat="45.39717" lon="3.79938">
        <ele>1064.32</ele>
        <time>2025-05-18T09:55:26Z</time>
      </trkpt>
      <trkpt lat="45.3975" lon="3.79944">
        <ele>1061.43</ele>
        <time>2025-05-18T09:55:49Z</time>
      </trkpt>
      <trkpt lat="45.39784" lon="3.79956">
        <ele>1051.82</ele>
        <time>2025-05-18T09:56:11Z</time>
      </trkpt>
      <trkpt lat="45.39794" lon="3.79965">
        <ele>1048.94</ele>
        <time>2025-05-18T09:56:19Z</time>
      </trkpt>
      <trkpt lat="45.39828" lon="3.79994">
        <ele>1043.65</ele>
        <time>2025-05-18T09:56:43Z</time>
      </trkpt>
      <trkpt lat="45.39854" lon="3.80021">
        <ele>1038.36</ele>
        <time>2025-05-18T09:57:05Z</time>
      </trkpt>
      <trkpt lat="45.39853" lon="3.80012">
        <ele>1039.32</ele>
        <time>2025-05-18T09:57:22Z</time>
      </trkpt>
      <trkpt lat="45.39842" lon="3.79978">
        <ele>1042.69</ele>
        <time>2025-05-18T09:57:40Z</time>
      </trkpt>
      <trkpt lat="45.39838" lon="3.79932">
        <ele>1044.61</ele>
        <time>2025-05-18T09:57:59Z</time>
      </trkpt>
      <trkpt lat="45.39833" lon="3.79897">
        <ele>1044.13</ele>
        <time>2025-05-18T09:58:15Z</time>
      </trkpt>
      <trkpt lat="45.39816" lon="3.79861">
        <ele>1041.73</ele>
        <time>2025-05-18T09:58:35Z</time>
      </trkpt>
      <trkpt lat="45.39796" lon="3.79844">
        <ele>1042.69</ele>
        <time>2025-05-18T09:58:59Z</time>
      </trkpt>
      <trkpt lat="45.39774" lon="3.79829">
        <ele>1040.76</ele>
        <time>2025-05-18T09:59:18Z</time>
      </trkpt>
      <trkpt lat="45.39756" lon="3.79826">
        <ele>1043.17</ele>
        <time>2025-05-18T09:59:42Z</time>
      </trkpt>
      <trkpt lat="45.39758" lon="3.79824">
        <ele>1039.8</ele>
        <time>2025-05-18T10:00:11Z</time>
      </trkpt>
      <trkpt lat="45.39751" lon="3.79812">
        <ele>1044.61</ele>
        <time>2025-05-18T10:00:36Z</time>
      </trkpt>
      <trkpt lat="45.39743" lon="3.79799">
        <ele>1050.86</ele>
        <time>2025-05-18T10:01:00Z</time>
      </trkpt>
      <trkpt lat="45.39755" lon="3.79809">
        <ele>1053.74</ele>
        <time>2025-05-18T10:01:30Z</time>
      </trkpt>
      <trkpt lat="45.39785" lon="3.79824">
        <ele>1054.22</ele>
        <time>2025-05-18T10:01:53Z</time>
      </trkpt>
      <trkpt lat="45.39807" lon="3.79837">
        <ele>1050.86</ele>
        <time>2025-05-18T10:02:11Z</time>
      </trkpt>
      <trkpt lat="45.39827" lon="3.79865">
        <ele>1045.57</ele>
        <time>2025-05-18T10:02:28Z</time>
      </trkpt>
      <trkpt lat="45.39837" lon="3.79903">
        <ele>1036.44</ele>
        <time>2025-05-18T10:02:49Z</time>
      </trkpt>
      <trkpt lat="45.39838" lon="3.79938">
        <ele>1027.79</ele>
        <time>2025-05-18T10:03:08Z</time>
      </trkpt>
      <trkpt lat="45.39847" lon="3.79973">
        <ele>1022.5</ele>
        <time>2025-05-18T10:03:27Z</time>
      </trkpt>
      <trkpt lat="45.39858" lon="3.80015">
        <ele>1030.19</ele>
        <time>2025-05-18T10:03:46Z</time>
      </trkpt>
      <trkpt lat="45.3986" lon="3.80035">
        <ele>1027.79</ele>
        <time>2025-05-18T10:04:03Z</time>
      </trkpt>
      <trkpt lat="45.39856" lon="3.80039">
        <ele>1021.06</ele>
        <time>2025-05-18T10:04:23Z</time>
      </trkpt>
      <trkpt lat="45.39853" lon="3.80033">
        <ele>1024.42</ele>
        <time>2025-05-18T10:04:41Z</time>
      </trkpt>
      <trkpt lat="45.39855" lon="3.8003">
        <ele>1027.79</ele>
        <time>2025-05-18T10:05:02Z</time>
      </trkpt>
      <trkpt lat="45.39855" lon="3.80022">
        <ele>1027.31</ele>
        <time>2025-05-18T10:05:30Z</time>
      </trkpt>
      <trkpt lat="45.39853" lon="3.80038">
        <ele>1033.55</ele>
        <time>2025-05-18T10:05:53Z</time>
      </trkpt>
      <trkpt lat="45.39858" lon="3.80074">
        <ele>1048.94</ele>
        <time>2025-05-18T10:06:13Z</time>
      </trkpt>
      <trkpt lat="45.39862" lon="3.80111">
        <ele>1053.74</ele>
        <time>2025-05-18T10:06:29Z</time>
      </trkpt>
      <trkpt lat="45.39866" lon="3.80147">
        <ele>1052.78</ele>
        <time>2025-05-18T10:06:48Z</time>
      </trkpt>
      <trkpt lat="45.3987" lon="3.80181">
        <ele>1052.3</ele>
        <time>2025-05-18T10:07:08Z</time>
      </trkpt>
      <trkpt lat="45.39876" lon="3.80215">
        <ele>1053.26</ele>
        <time>2025-05-18T10:07:28Z</time>
      </trkpt>
      <trkpt lat="45.3989" lon="3.80249">
        <ele>1056.15</ele>
        <time>2025-05-18T10:07:46Z</time>
      </trkpt>
      <trkpt lat="45.39907" lon="3.80279">
        <ele>1050.86</ele>
        <time>2025-05-18T10:08:08Z</time>
      </trkpt>
      <trkpt lat="45.39922" lon="3.80318">
        <ele>1046.05</ele>
        <time>2025-05-18T10:08:30Z</time>
      </trkpt>
      <trkpt lat="45.39931" lon="3.80349">
        <ele>1038.36</ele>
        <time>2025-05-18T10:08:49Z</time>
      </trkpt>
      <trkpt lat="45.39933" lon="3.80393">
        <ele>1038.36</ele>
        <time>2025-05-18T10:09:08Z</time>
      </trkpt>
      <trkpt lat="45.39936" lon="3.80427">
        <ele>1036.92</ele>
        <time>2025-05-18T10:09:28Z</time>
      </trkpt>
      <trkpt lat="45.3993" lon="3.80455">
        <ele>1029.23</ele>
        <time>2025-05-18T10:09:44Z</time>
      </trkpt>
      <trkpt lat="45.39928" lon="3.8046">
        <ele>1028.27</ele>
        <time>2025-05-18T10:09:46Z</time>
      </trkpt>
      <trkpt lat="45.39921" lon="3.80512">
        <ele>1039.8</ele>
        <time>2025-05-18T10:10:07Z</time>
      </trkpt>
      <trkpt lat="45.39913" lon="3.80542">
        <ele>1044.13</ele>
        <time>2025-05-18T10:10:26Z</time>
      </trkpt>
      <trkpt lat="45.39908" lon="3.80583">
        <ele>1049.9</ele>
        <time>2025-05-18T10:10:44Z</time>
      </trkpt>
      <trkpt lat="45.39907" lon="3.80612">
        <ele>1055.18</ele>
        <time>2025-05-18T10:11:02Z</time>
      </trkpt>
      <trkpt lat="45.39902" lon="3.80649">
        <ele>1058.55</ele>
        <time>2025-05-18T10:11:22Z</time>
      </trkpt>
      <trkpt lat="45.39892" lon="3.80688">
        <ele>1056.15</ele>
        <time>2025-05-18T10:11:39Z</time>
      </trkpt>
      <trkpt lat="45.39886" lon="3.80714">
        <ele>1063.36</ele>
        <time>2025-05-18T10:11:53Z</time>
      </trkpt>
      <trkpt lat="45.39883" lon="3.80751">
        <ele>1058.07</ele>
        <time>2025-05-18T10:12:16Z</time>
      </trkpt>
      <trkpt lat="45.39877" lon="3.80804">
        <ele>1057.59</ele>
        <time>2025-05-18T10:12:34Z</time>
      </trkpt>
      <trkpt lat="45.3988" lon="3.80846">
        <ele>1058.07</ele>
        <time>2025-05-18T10:12:55Z</time>
      </trkpt>
      <trkpt lat="45.39878" lon="3.80891">
        <ele>1057.11</ele>
        <time>2025-05-18T10:13:18Z</time>
      </trkpt>
      <trkpt lat="45.39873" lon="3.8093">
        <ele>1054.7</ele>
        <time>2025-05-18T10:13:38Z</time>
      </trkpt>
      <trkpt lat="45.3987" lon="3.80966">
        <ele>1055.67</ele>
        <time>2025-05-18T10:13:55Z</time>
      </trkpt>
      <trkpt lat="45.39868" lon="3.8101">
        <ele>1054.7</ele>
        <time>2025-05-18T10:14:13Z</time>
      </trkpt>
      <trkpt lat="45.39868" lon="3.81016">
        <ele>1055.67</ele>
        <time>2025-05-18T10:14:15Z</time>
      </trkpt>
      <trkpt lat="45.39862" lon="3.81042">
        <ele>1057.59</ele>
        <time>2025-05-18T10:14:32Z</time>
      </trkpt>
      <trkpt lat="45.39857" lon="3.81062">
        <ele>1061.91</ele>
        <time>2025-05-18T10:14:49Z</time>
      </trkpt>
      <trkpt lat="45.39856" lon="3.81079">
        <ele>1064.32</ele>
        <time>2025-05-18T10:15:07Z</time>
      </trkpt>
      <trkpt lat="45.39858" lon="3.81086">
        <ele>1064.8</ele>
        <time>2025-05-18T10:15:27Z</time>
      </trkpt>
      <trkpt lat="45.39864" lon="3.81068">
        <ele>1069.6</ele>
        <time>2025-05-18T10:15:54Z</time>
      </trkpt>
      <trkpt lat="45.39856" lon="3.81065">
        <ele>1060.47</ele>
        <time>2025-05-18T10:16:13Z</time>
      </trkpt>
      <trkpt lat="45.39853" lon="3.8106">
        <ele>1056.63</ele>
        <time>2025-05-18T10:16:28Z</time>
      </trkpt>
      <trkpt lat="45.39855" lon="3.81051">
        <ele>1055.18</ele>
        <time>2025-05-18T10:16:44Z</time>
      </trkpt>
      <trkpt lat="45.39853" lon="3.8105">
        <ele>1053.26</ele>
        <time>2025-05-18T10:17:05Z</time>
      </trkpt>
      <trkpt lat="45.39852" lon="3.81043">
        <ele>1054.22</ele>
        <time>2025-05-18T10:17:19Z</time>
      </trkpt>
      <trkpt lat="45.39859" lon="3.81039">
        <ele>1054.22</ele>
        <time>2025-05-18T10:17:35Z</time>
      </trkpt>
      <trkpt lat="45.39858" lon="3.8104">
        <ele>1052.78</ele>
        <time>2025-05-18T10:17:58Z</time>
      </trkpt>
      <trkpt lat="45.39855" lon="3.81047">
        <ele>1054.7</ele>
        <time>2025-05-18T10:18:23Z</time>
      </trkpt>
      <trkpt lat="45.39859" lon="3.81045">
        <ele>1054.22</ele>
        <time>2025-05-18T10:18:49Z</time>
      </trkpt>
      <trkpt lat="45.39856" lon="3.81047">
        <ele>1051.82</ele>
        <time>2025-05-18T10:19:14Z</time>
      </trkpt>
      <trkpt lat="45.39859" lon="3.81044">
        <ele>1055.18</ele>
        <time>2025-05-18T10:19:30Z</time>
      </trkpt>
      <trkpt lat="45.39861" lon="3.81044">
        <ele>1056.15</ele>
        <time>2025-05-18T10:19:34Z</time>
      </trkpt>
      <trkpt lat="45.39467" lon="3.80855">
        <ele>1052.78</ele>
        <time>2025-05-18T12:54:05Z</time>
      </trkpt>
      <trkpt lat="45.39462" lon="3.80854">
        <ele>1052.78</ele>
        <time>2025-05-18T12:54:09Z</time>
      </trkpt>
      <trkpt lat="45.39442" lon="3.80862">
        <ele>1052.3</ele>
        <time>2025-05-18T12:54:25Z</time>
      </trkpt>
      <trkpt lat="45.39437" lon="3.80865">
        <ele>1052.3</ele>
        <time>2025-05-18T12:54:30Z</time>
      </trkpt>
      <trkpt lat="45.39421" lon="3.80864">
        <ele>1052.3</ele>
        <time>2025-05-18T12:54:45Z</time>
      </trkpt>
      <trkpt lat="45.39405" lon="3.80871">
        <ele>1052.3</ele>
        <time>2025-05-18T12:55:05Z</time>
      </trkpt>
      <trkpt lat="45.39406" lon="3.80872">
        <ele>1052.3</ele>
        <time>2025-05-18T12:55:36Z</time>
      </trkpt>
      <trkpt lat="45.39399" lon="3.80909">
        <ele>1062.39</ele>
        <time>2025-05-18T12:56:09Z</time>
      </trkpt>
      <trkpt lat="45.39395" lon="3.80911">
        <ele>1069.12</ele>
        <time>2025-05-18T12:56:33Z</time>
      </trkpt>
      <trkpt lat="45.39368" lon="3.80922">
        <ele>1070.57</ele>
        <time>2025-05-18T12:56:52Z</time>
      </trkpt>
      <trkpt lat="45.39344" lon="3.80931">
        <ele>1073.45</ele>
        <time>2025-05-18T12:57:08Z</time>
      </trkpt>
      <trkpt lat="45.39338" lon="3.80927">
        <ele>1075.37</ele>
        <time>2025-05-18T12:57:24Z</time>
      </trkpt>
      <trkpt lat="45.39335" lon="3.80927">
        <ele>1079.7</ele>
        <time>2025-05-18T12:57:43Z</time>
      </trkpt>
      <trkpt lat="45.39331" lon="3.80922">
        <ele>1080.18</ele>
        <time>2025-05-18T12:58:03Z</time>
      </trkpt>
      <trkpt lat="45.39326" lon="3.80935">
        <ele>1080.66</ele>
        <time>2025-05-18T12:58:18Z</time>
      </trkpt>
      <trkpt lat="45.39298" lon="3.80955">
        <ele>1074.41</ele>
        <time>2025-05-18T12:58:32Z</time>
      </trkpt>
      <trkpt lat="45.39293" lon="3.80961">
        <ele>1083.06</ele>
        <time>2025-05-18T12:58:45Z</time>
      </trkpt>
      <trkpt lat="45.39269" lon="3.80974">
        <ele>1092.68</ele>
        <time>2025-05-18T12:59:02Z</time>
      </trkpt>
      <trkpt lat="45.39249" lon="3.80983">
        <ele>1096.04</ele>
        <time>2025-05-18T12:59:18Z</time>
      </trkpt>
      <trkpt lat="45.39232" lon="3.80994">
        <ele>1099.89</ele>
        <time>2025-05-18T12:59:36Z</time>
      </trkpt>
      <trkpt lat="45.39214" lon="3.81005">
        <ele>1102.77</ele>
        <time>2025-05-18T12:59:51Z</time>
      </trkpt>
      <trkpt lat="45.39194" lon="3.81014">
        <ele>1102.77</ele>
        <time>2025-05-18T13:00:09Z</time>
      </trkpt>
      <trkpt lat="45.39182" lon="3.81017">
        <ele>1098.44</ele>
        <time>2025-05-18T13:00:27Z</time>
      </trkpt>
      <trkpt lat="45.39174" lon="3.81022">
        <ele>1110.94</ele>
        <time>2025-05-18T13:00:52Z</time>
      </trkpt>
      <trkpt lat="45.39179" lon="3.81041">
        <ele>1115.27</ele>
        <time>2025-05-18T13:01:09Z</time>
      </trkpt>
      <trkpt lat="45.39183" lon="3.81045">
        <ele>1115.27</ele>
        <time>2025-05-18T13:01:29Z</time>
      </trkpt>
      <trkpt lat="45.39194" lon="3.81049">
        <ele>1113.34</ele>
        <time>2025-05-18T13:01:50Z</time>
      </trkpt>
      <trkpt lat="45.39207" lon="3.81039">
        <ele>1110.46</ele>
        <time>2025-05-18T13:02:09Z</time>
      </trkpt>
      <trkpt lat="45.39222" lon="3.81027">
        <ele>1108.06</ele>
        <time>2025-05-18T13:02:30Z</time>
      </trkpt>
      <trkpt lat="45.39233" lon="3.81021">
        <ele>1104.21</ele>
        <time>2025-05-18T13:02:47Z</time>
      </trkpt>
      <trkpt lat="45.39255" lon="3.81004">
        <ele>1099.4</ele>
        <time>2025-05-18T13:03:07Z</time>
      </trkpt>
      <trkpt lat="45.39268" lon="3.81008">
        <ele>1091.71</ele>
        <time>2025-05-18T13:03:30Z</time>
      </trkpt>
      <trkpt lat="45.39279" lon="3.81031">
        <ele>1084.99</ele>
        <time>2025-05-18T13:03:51Z</time>
      </trkpt>
      <trkpt lat="45.39284" lon="3.8106">
        <ele>1078.74</ele>
        <time>2025-05-18T13:04:06Z</time>
      </trkpt>
      <trkpt lat="45.39272" lon="3.81079">
        <ele>1074.41</ele>
        <time>2025-05-18T13:04:24Z</time>
      </trkpt>
      <trkpt lat="45.39257" lon="3.81097">
        <ele>1058.55</ele>
        <time>2025-05-18T13:04:39Z</time>
      </trkpt>
      <trkpt lat="45.39237" lon="3.81112">
        <ele>1042.21</ele>
        <time>2025-05-18T13:04:54Z</time>
      </trkpt>
      <trkpt lat="45.39224" lon="3.81118">
        <ele>1029.23</ele>
        <time>2025-05-18T13:05:11Z</time>
      </trkpt>
      <trkpt lat="45.39203" lon="3.81126">
        <ele>1019.62</ele>
        <time>2025-05-18T13:05:30Z</time>
      </trkpt>
      <trkpt lat="45.39192" lon="3.81125">
        <ele>1013.85</ele>
        <time>2025-05-18T13:05:39Z</time>
      </trkpt>
      <trkpt lat="45.39158" lon="3.81126">
        <ele>998.95</ele>
        <time>2025-05-18T13:05:59Z</time>
      </trkpt>
      <trkpt lat="45.3912" lon="3.81124">
        <ele>985.97</ele>
        <time>2025-05-18T13:06:18Z</time>
      </trkpt>
      <trkpt lat="45.39098" lon="3.81114">
        <ele>978.28</ele>
        <time>2025-05-18T13:06:33Z</time>
      </trkpt>
      <trkpt lat="45.39075" lon="3.811">
        <ele>973.95</ele>
        <time>2025-05-18T13:06:51Z</time>
      </trkpt>
      <trkpt lat="45.39062" lon="3.811">
        <ele>974.43</ele>
        <time>2025-05-18T13:06:59Z</time>
      </trkpt>
      <trkpt lat="45.39035" lon="3.81089">
        <ele>974.43</ele>
        <time>2025-05-18T13:07:16Z</time>
      </trkpt>
      <trkpt lat="45.39011" lon="3.81087">
        <ele>974.43</ele>
        <time>2025-05-18T13:07:33Z</time>
      </trkpt>
      <trkpt lat="45.38984" lon="3.81082">
        <ele>974.43</ele>
        <time>2025-05-18T13:07:51Z</time>
      </trkpt>
      <trkpt lat="45.38955" lon="3.81072">
        <ele>974.91</ele>
        <time>2025-05-18T13:08:09Z</time>
      </trkpt>
      <trkpt lat="45.38931" lon="3.81071">
        <ele>974.91</ele>
        <time>2025-05-18T13:08:27Z</time>
      </trkpt>
      <trkpt lat="45.38917" lon="3.81076">
        <ele>974.91</ele>
        <time>2025-05-18T13:08:37Z</time>
      </trkpt>
      <trkpt lat="45.38909" lon="3.81081">
        <ele>974.91</ele>
        <time>2025-05-18T13:08:42Z</time>
      </trkpt>
      <trkpt lat="45.3888" lon="3.81091">
        <ele>974.91</ele>
        <time>2025-05-18T13:09:02Z</time>
      </trkpt>
      <trkpt lat="45.38856" lon="3.81099">
        <ele>975.39</ele>
        <time>2025-05-18T13:09:18Z</time>
      </trkpt>
      <trkpt lat="45.38832" lon="3.81103">
        <ele>975.39</ele>
        <time>2025-05-18T13:09:33Z</time>
      </trkpt>
      <trkpt lat="45.38814" lon="3.81097">
        <ele>975.39</ele>
        <time>2025-05-18T13:09:50Z</time>
      </trkpt>
      <trkpt lat="45.38797" lon="3.81101">
        <ele>975.39</ele>
        <time>2025-05-18T13:09:58Z</time>
      </trkpt>
      <trkpt lat="45.38775" lon="3.811">
        <ele>975.39</ele>
        <time>2025-05-18T13:10:16Z</time>
      </trkpt>
      <trkpt lat="45.38769" lon="3.811">
        <ele>975.39</ele>
        <time>2025-05-18T13:10:19Z</time>
      </trkpt>
      <trkpt lat="45.38751" lon="3.81097">
        <ele>975.39</ele>
        <time>2025-05-18T13:10:31Z</time>
      </trkpt>
      <trkpt lat="45.38724" lon="3.81103">
        <ele>975.39</ele>
        <time>2025-05-18T13:10:48Z</time>
      </trkpt>
      <trkpt lat="45.38703" lon="3.81106">
        <ele>975.88</ele>
        <time>2025-05-18T13:11:06Z</time>
      </trkpt>
      <trkpt lat="45.38676" lon="3.81124">
        <ele>975.88</ele>
        <time>2025-05-18T13:11:23Z</time>
      </trkpt>
      <trkpt lat="45.38649" lon="3.81132">
        <ele>975.88</ele>
        <time>2025-05-18T13:11:41Z</time>
      </trkpt>
      <trkpt lat="45.38627" lon="3.81131">
        <ele>975.88</ele>
        <time>2025-05-18T13:11:56Z</time>
      </trkpt>
      <trkpt lat="45.38625" lon="3.8113">
        <ele>975.88</ele>
        <time>2025-05-18T13:11:57Z</time>
      </trkpt>
      <trkpt lat="45.3862" lon="3.81124">
        <ele>975.88</ele>
        <time>2025-05-18T13:12:01Z</time>
      </trkpt>
      <trkpt lat="45.38597" lon="3.81111">
        <ele>976.36</ele>
        <time>2025-05-18T13:12:19Z</time>
      </trkpt>
      <trkpt lat="45.38572" lon="3.81092">
        <ele>976.36</ele>
        <time>2025-05-18T13:12:37Z</time>
      </trkpt>
      <trkpt lat="45.3855" lon="3.81068">
        <ele>976.36</ele>
        <time>2025-05-18T13:12:56Z</time>
      </trkpt>
      <trkpt lat="45.38534" lon="3.81055">
        <ele>976.84</ele>
        <time>2025-05-18T13:13:17Z</time>
      </trkpt>
      <trkpt lat="45.3851" lon="3.81065">
        <ele>976.36</ele>
        <time>2025-05-18T13:13:31Z</time>
      </trkpt>
      <trkpt lat="45.38481" lon="3.8107">
        <ele>976.84</ele>
        <time>2025-05-18T13:13:51Z</time>
      </trkpt>
      <trkpt lat="45.38467" lon="3.81072">
        <ele>976.84</ele>
        <time>2025-05-18T13:13:59Z</time>
      </trkpt>
      <trkpt lat="45.3844" lon="3.81083">
        <ele>976.84</ele>
        <time>2025-05-18T13:14:18Z</time>
      </trkpt>
      <trkpt lat="45.38407" lon="3.81101">
        <ele>976.84</ele>
        <time>2025-05-18T13:14:36Z</time>
      </trkpt>
      <trkpt lat="45.3838" lon="3.81111">
        <ele>976.84</ele>
        <time>2025-05-18T13:14:52Z</time>
      </trkpt>
      <trkpt lat="45.38359" lon="3.81116">
        <ele>976.84</ele>
        <time>2025-05-18T13:15:08Z</time>
      </trkpt>
      <trkpt lat="45.38333" lon="3.81126">
        <ele>976.84</ele>
        <time>2025-05-18T13:15:22Z</time>
      </trkpt>
      <trkpt lat="45.3832" lon="3.81133">
        <ele>976.36</ele>
        <time>2025-05-18T13:15:29Z</time>
      </trkpt>
      <trkpt lat="45.38301" lon="3.8113">
        <ele>976.84</ele>
        <time>2025-05-18T13:15:44Z</time>
      </trkpt>
      <trkpt lat="45.38301" lon="3.81125">
        <ele>976.84</ele>
        <time>2025-05-18T13:16:13Z</time>
      </trkpt>
      <trkpt lat="45.38315" lon="3.81187">
        <ele>1007.12</ele>
        <time>2025-05-18T13:16:39Z</time>
      </trkpt>
    </trkseg>
  </trk>
</gpx>